Terminal Aerodrome Forecast
Issued by NWS Boise, ID

Home | Current Version | Previous Version | Text Only | Print | Product List | Glossary On
Versions: 1 2 3 4 5 6 7 8 9 10 11 12 13 14 15 16 17 18 19
000
FTUS45 KBOI 252024 AAA
TAFBNO
TAF AMD
KBNO 252024Z 2520/2618 21012KT P6SM OVC040
     FM260000 21015G25KT 3SM -SN BR OVC025
     FM260800 32012KT 4SM -SHSN BR OVC040
     FM261200 31007KT P6SM SCT050=

USA.gov is the U.S. government's official web portal to all federal, state and local government web resources and services.